Back to Top

Language: 

My Weather Underground Personal Weather Station Historical Data with Graphs...

Delerius Weather Station Historical Data
Daily Summary for November 12, 2017 Units:  English    Metric   Both
« Previous Day
Next Day »
Daily Weekly Monthly Yearly Custom
  High: Low: Average:
Temperature: 46.8 °F 37.6 °F 41.9 °F
Dew Point: 38.4 °F 30.4 °F 34.3 °F
Humidity: 88 % 61 % 75 %
Wind Speed: 16.0 mph 0.0 mph 8 mph
Wind Gust: 25.0 mph - -
Wind:- - WNW
Pressure: 30.21 in 29.74 in -
Precipitation: 0.00 in    
Historical Graphs
 
 
Tabular Data for November 12, 2017
Time Temperature Dew Point Pressure Wind Wind Speed Wind Gust Humidity Rainfall Rate (Hourly) solar Conditions
00:02 40.6 °F 37.1 °F 29.81 in WNW 2.0 mph 4.0 mph 87 % 0.00 in 0 W/m2
00:07 40.5 °F 36.9 °F 29.81 in WNW 3.0 mph 5.0 mph 87 % 0.00 in 0 W/m2
00:12 40.5 °F 36.9 °F 29.82 in WNW 3.0 mph 5.0 mph 87 % 0.00 in 0 W/m2
00:17 40.5 °F 36.9 °F 29.81 in WNW 3.0 mph 6.0 mph 87 % 0.00 in 0 W/m2
00:22 40.6 °F 37.4 °F 29.81 in West 2.0 mph 5.0 mph 88 % 0.00 in 0 W/m2
00:27 40.8 °F 37.5 °F 29.81 in West 1.0 mph 2.0 mph 88 % 0.00 in 0 W/m2
00:32 40.8 °F 37.5 °F 29.81 in WNW 2.0 mph 4.0 mph 88 % 0.00 in 0 W/m2
00:37 40.8 °F 37.5 °F 29.81 in WNW 3.0 mph 7.0 mph 88 % 0.00 in 0 W/m2
00:42 40.8 °F 37.5 °F 29.81 in WNW 5.0 mph 8.0 mph 88 % 0.00 in 0 W/m2
00:47 41.2 °F 37.6 °F 29.81 in WNW 5.0 mph 7.0 mph 87 % 0.00 in 0 W/m2
00:52 41.4 °F 37.8 °F 29.81 in WNW 5.0 mph 8.0 mph 87 % 0.00 in 0 W/m2
00:57 41.5 °F 38.0 °F 29.81 in WNW 3.0 mph 5.0 mph 87 % 0.00 in 0 W/m2
01:02 41.5 °F 37.7 °F 29.81 in Calm   3.0 mph 86 % 0.00 in 0 W/m2
01:07 41.5 °F 37.7 °F 29.80 in Calm   1.0 mph 86 % 0.00 in 0 W/m2
01:13 41.5 °F 37.7 °F 29.80 in Calm     86 % 0.00 in 0 W/m2
01:18 41.4 °F 37.5 °F 29.80 in Calm     86 % 0.00 in 0 W/m2
01:23 41.4 °F 37.5 °F 29.80 in Calm     86 % 0.00 in 0 W/m2
01:28 41.2 °F 37.3 °F 29.80 in WNW 2.0 mph 5.0 mph 86 % 0.00 in 0 W/m2
01:33 41.2 °F 37.6 °F 29.80 in WNW 1.0 mph 4.0 mph 87 % 0.00 in 0 W/m2
01:38 41.2 °F 37.6 °F 29.80 in WNW 1.0 mph 4.0 mph 87 % 0.00 in 0 W/m2
01:43 41.2 °F 37.6 °F 29.79 in WNW 3.0 mph 5.0 mph 87 % 0.00 in 0 W/m2
01:48 41.4 °F 37.8 °F 29.79 in WNW 2.0 mph 4.0 mph 87 % 0.00 in 0 W/m2
01:53 41.4 °F 37.8 °F 29.80 in WNW 5.0 mph 8.0 mph 87 % 0.00 in 0 W/m2
01:58 41.5 °F 38.0 °F 29.79 in West 6.0 mph 10.0 mph 87 % 0.00 in 0 W/m2
02:03 41.7 °F 38.1 °F 29.79 in WNW 7.0 mph 11.0 mph 87 % 0.00 in 0 W/m2
02:08 41.7 °F 38.1 °F 29.79 in WNW 7.0 mph 9.0 mph 87 % 0.00 in 0 W/m2
02:13 41.9 °F 38.0 °F 29.79 in WNW 6.0 mph 10.0 mph 86 % 0.00 in 0 W/m2
02:18 42.1 °F 38.2 °F 29.79 in WNW 7.0 mph 12.0 mph 86 % 0.00 in 0 W/m2
02:23 42.3 °F 38.4 °F 29.80 in WNW 6.0 mph 9.0 mph 86 % 0.00 in 0 W/m2
02:28 42.3 °F 38.4 °F 29.79 in WNW 4.0 mph 7.0 mph 86 % 0.00 in 0 W/m2
02:33 42.3 °F 38.4 °F 29.78 in WNW 4.0 mph 8.0 mph 86 % 0.00 in 0 W/m2
02:38 42.3 °F 38.4 °F 29.78 in WNW 4.0 mph 6.0 mph 86 % 0.00 in 0 W/m2
02:43 42.3 °F 38.4 °F 29.78 in WNW 4.0 mph 8.0 mph 86 % 0.00 in 0 W/m2
02:48 42.1 °F 38.2 °F 29.78 in WNW 4.0 mph 7.0 mph 86 % 0.00 in 0 W/m2
02:53 42.1 °F 38.2 °F 29.78 in WNW 6.0 mph 8.0 mph 86 % 0.00 in 0 W/m2
02:58 42.1 °F 38.2 °F 29.78 in WNW 4.0 mph 7.0 mph 86 % 0.00 in 0 W/m2
03:03 42.1 °F 38.2 °F 29.77 in West 5.0 mph 7.0 mph 86 % 0.00 in 0 W/m2
03:08 42.1 °F 38.2 °F 29.77 in West 4.0 mph 7.0 mph 86 % 0.00 in 0 W/m2
03:13 41.9 °F 38.0 °F 29.77 in WNW 5.0 mph 8.0 mph 86 % 0.00 in 0 W/m2
03:18 41.9 °F 38.0 °F 29.77 in WNW 4.0 mph 8.0 mph 86 % 0.00 in 0 W/m2
03:21 41.9 °F 37.7 °F 29.77 in WNW 6.0 mph 10.0 mph 85 % 0.00 in 0 W/m2
03:24 41.9 °F 37.7 °F 29.77 in WNW 6.0 mph 11.0 mph 85 % 0.00 in 0 W/m2
03:25 41.9 °F 37.7 °F 29.77 in WNW 7.0 mph 11.0 mph 85 % 0.00 in 0 W/m2
03:29 41.9 °F 37.7 °F 29.77 in WNW 8.0 mph 11.0 mph 85 % 0.00 in 0 W/m2
03:30 41.9 °F 37.7 °F 29.77 in WNW 8.0 mph 11.0 mph 85 % 0.00 in 0 W/m2
03:35 41.9 °F 37.7 °F 29.77 in WNW 6.0 mph 10.0 mph 85 % 0.00 in 0 W/m2
03:40 42.1 °F 37.9 °F 29.77 in WNW 7.0 mph 10.0 mph 85 % 0.00 in 0 W/m2
03:45 42.1 °F 37.9 °F 29.77 in West 6.0 mph 11.0 mph 85 % 0.00 in 0 W/m2
03:50 42.1 °F 37.9 °F 29.76 in West 8.0 mph 12.0 mph 85 % 0.00 in 0 W/m2
03:55 42.1 °F 37.6 °F 29.76 in West 9.0 mph 15.0 mph 84 % 0.00 in 0 W/m2
04:00 42.1 °F 37.3 °F 29.76 in WNW 9.0 mph 13.0 mph 83 % 0.00 in 0 W/m2
04:05 42.1 °F 37.3 °F 29.76 in West 10.0 mph 14.0 mph 83 % 0.00 in 0 W/m2
04:10 41.9 °F 36.8 °F 29.76 in WNW 9.0 mph 13.0 mph 82 % 0.00 in 0 W/m2
04:11 41.9 °F 36.8 °F 29.76 in West 9.0 mph 15.0 mph 82 % 0.00 in 0 W/m2
04:16 41.7 °F 36.6 °F 29.75 in WNW 9.0 mph 14.0 mph 82 % 0.00 in 0 W/m2
04:21 41.7 °F 36.3 °F 29.75 in WNW 6.0 mph 11.0 mph 81 % 0.00 in 0 W/m2
04:26 41.5 °F 36.1 °F 29.74 in West 8.0 mph 12.0 mph 81 % 0.00 in 0 W/m2
04:31 41.4 °F 36.0 °F 29.74 in WNW 8.0 mph 13.0 mph 81 % 0.00 in 0 W/m2
04:36 41.2 °F 35.8 °F 29.75 in WNW 7.0 mph 11.0 mph 81 % 0.00 in 0 W/m2
04:41 41.2 °F 35.8 °F 29.74 in WNW 9.0 mph 13.0 mph 81 % 0.00 in 0 W/m2
04:46 41.0 °F 35.6 °F 29.74 in WNW 7.0 mph 12.0 mph 81 % 0.00 in 0 W/m2
04:51 40.8 °F 35.7 °F 29.75 in WNW 8.0 mph 12.0 mph 82 % 0.00 in 0 W/m2
04:56 40.6 °F 35.6 °F 29.75 in WNW 7.0 mph 12.0 mph 82 % 0.00 in 0 W/m2
05:01 40.6 °F 35.6 °F 29.75 in WNW 6.0 mph 11.0 mph 82 % 0.00 in 0 W/m2
05:06 40.5 °F 35.7 °F 29.75 in WNW 8.0 mph 12.0 mph 83 % 0.00 in 0 W/m2
05:11 40.5 °F 35.7 °F 29.75 in WNW 6.0 mph 11.0 mph 83 % 0.00 in 0 W/m2
05:16 40.3 °F 35.8 °F 29.75 in WNW 7.0 mph 9.0 mph 84 % 0.00 in 0 W/m2
05:21 40.3 °F 35.8 °F 29.75 in WNW 7.0 mph 13.0 mph 84 % 0.00 in 0 W/m2
05:26 40.1 °F 35.7 °F 29.75 in WNW 9.0 mph 14.0 mph 84 % 0.00 in 0 W/m2
05:31 40.1 °F 36.0 °F 29.74 in WNW 9.0 mph 15.0 mph 85 % 0.00 in 0 W/m2
05:36 40.1 °F 36.0 °F 29.74 in WNW 7.0 mph 12.0 mph 85 % 0.00 in 0 W/m2
05:41 39.9 °F 35.8 °F 29.74 in WNW 8.0 mph 13.0 mph 85 % 0.00 in 0 W/m2
05:46 39.9 °F 35.8 °F 29.74 in WNW 9.0 mph 16.0 mph 85 % 0.00 in 0 W/m2
05:52 39.9 °F 35.8 °F 29.74 in WNW 7.0 mph 13.0 mph 85 % 0.00 in 0 W/m2
05:57 39.9 °F 35.8 °F 29.74 in WNW 10.0 mph 16.0 mph 85 % 0.00 in 0 W/m2
06:02 39.9 °F 35.8 °F 29.74 in WNW 9.0 mph 16.0 mph 85 % 0.00 in 0 W/m2
06:07 39.7 °F 35.6 °F 29.74 in WNW 8.0 mph 12.0 mph 85 % 0.00 in 0 W/m2
06:12 39.7 °F 35.6 °F 29.75 in WNW 8.0 mph 14.0 mph 85 % 0.00 in 0 W/m2
06:17 39.7 °F 35.6 °F 29.75 in WNW 10.0 mph 16.0 mph 85 % 0.00 in 0 W/m2
06:22 39.7 °F 35.6 °F 29.75 in WNW 10.0 mph 18.0 mph 85 % 0.00 in 0 W/m2
06:27 39.7 °F 35.6 °F 29.75 in WNW 10.0 mph 15.0 mph 85 % 0.00 in 0 W/m2
06:32 39.7 °F 35.6 °F 29.75 in WNW 10.0 mph 18.0 mph 85 % 0.00 in 0 W/m2
06:37 39.7 °F 35.6 °F 29.75 in WNW 8.0 mph 14.0 mph 85 % 0.00 in 0 W/m2
06:42 39.7 °F 35.3 °F 29.74 in WNW 11.0 mph 19.0 mph 84 % 0.00 in 0 W/m2
06:47 39.7 °F 35.6 °F 29.74 in WNW 12.0 mph 19.0 mph 85 % 0.00 in 0 W/m2
06:52 39.7 °F 35.6 °F 29.74 in WNW 11.0 mph 18.0 mph 85 % 0.00 in 0 W/m2
06:53 39.7 °F 35.6 °F 29.74 in WNW 12.0 mph 22.0 mph 85 % 0.00 in 0 W/m2
06:58 39.7 °F 35.3 °F 29.74 in WNW 10.0 mph 15.0 mph 84 % 0.00 in 0 W/m2
07:04 39.6 °F 35.4 °F 29.74 in WNW 9.0 mph 14.0 mph 85 % 0.00 in 0 W/m2
07:09 39.6 °F 35.1 °F 29.75 in WNW 8.0 mph 14.0 mph 84 % 0.00 in 0 W/m2
07:14 39.6 °F 35.1 °F 29.75 in NW 5.0 mph 9.0 mph 84 % 0.00 in 0 W/m2
07:19 39.4 °F 35.2 °F 29.75 in NW 7.0 mph 11.0 mph 85 % 0.00 in 0 W/m2
07:24 39.4 °F 35.2 °F 29.75 in NW 9.0 mph 15.0 mph 85 % 0.00 in 5 W/m2
07:29 39.2 °F 35.1 °F 29.76 in NW 8.0 mph 13.0 mph 85 % 0.00 in 7 W/m2
07:34 39.2 °F 35.1 °F 29.75 in WNW 8.0 mph 13.0 mph 85 % 0.00 in 9 W/m2
07:39 39.2 °F 35.1 °F 29.76 in WNW 9.0 mph 13.0 mph 85 % 0.00 in 11 W/m2
07:44 39.4 °F 35.2 °F 29.76 in WNW 10.0 mph 16.0 mph 85 % 0.00 in 12 W/m2
07:49 39.4 °F 35.2 °F 29.76 in WNW 9.0 mph 14.0 mph 85 % 0.00 in 16 W/m2
07:54 39.4 °F 35.2 °F 29.76 in WNW 10.0 mph 13.0 mph 85 % 0.00 in 16 W/m2
07:59 39.4 °F 35.2 °F 29.77 in WNW 9.0 mph 15.0 mph 85 % 0.00 in 18 W/m2
08:04 39.4 °F 35.2 °F 29.77 in WNW 8.0 mph 11.0 mph 85 % 0.00 in 19 W/m2
08:09 39.4 °F 35.2 °F 29.77 in WNW 9.0 mph 14.0 mph 85 % 0.00 in 21 W/m2
08:19 39.4 °F 35.2 °F 29.76 in NW 9.0 mph 13.0 mph 85 % 0.00 in 23 W/m2
08:24 39.6 °F 35.4 °F 29.76 in WNW 5.0 mph 10.0 mph 85 % 0.00 in 25 W/m2
08:29 39.6 °F 35.1 °F 29.76 in NW 7.0 mph 10.0 mph 84 % 0.00 in 26 W/m2
08:34 39.6 °F 35.1 °F 29.77 in NW 6.0 mph 9.0 mph 84 % 0.00 in 26 W/m2
08:39 39.7 °F 35.0 °F 29.77 in NW 9.0 mph 15.0 mph 83 % 0.00 in 28 W/m2
08:44 39.9 °F 34.9 °F 29.77 in NW 11.0 mph 19.0 mph 82 % 0.00 in 28 W/m2
08:49 40.3 °F 34.9 °F 29.77 in NW 10.0 mph 18.0 mph 81 % 0.00 in 32 W/m2
08:51 40.3 °F 34.6 °F 29.77 in NW 12.0 mph 23.0 mph 80 % 0.00 in 33 W/m2
08:56 40.5 °F 34.8 °F 29.77 in WNW 11.0 mph 16.0 mph 80 % 0.00 in 35 W/m2
09:01 40.5 °F 34.5 °F 29.78 in NW 11.0 mph 22.0 mph 79 % 0.00 in 172 W/m2
09:06 40.6 °F 34.6 °F 29.78 in NW 10.0 mph 20.0 mph 79 % 0.00 in 185 W/m2
09:11 40.8 °F 34.8 °F 29.78 in NW 11.0 mph 19.0 mph 79 % 0.00 in 195 W/m2
09:16 41.2 °F 34.8 °F 29.78 in NW 9.0 mph 16.0 mph 78 % 0.00 in 202 W/m2
09:21 41.5 °F 34.9 °F 29.78 in NW 14.0 mph 23.0 mph 77 % 0.00 in 211 W/m2
09:26 41.7 °F 34.7 °F 29.78 in NW 14.0 mph 24.0 mph 76 % 0.00 in 221 W/m2
09:31 41.9 °F 34.6 °F 29.79 in NW 11.0 mph 21.0 mph 75 % 0.00 in 229 W/m2
09:36 42.1 °F 34.4 °F 29.79 in NW 10.0 mph 20.0 mph 74 % 0.00 in 237 W/m2
09:41 42.3 °F 34.6 °F 29.79 in NW 12.0 mph 21.0 mph 74 % 0.00 in 243 W/m2
09:46 42.4 °F 34.4 °F 29.80 in NW 13.0 mph 22.0 mph 73 % 0.00 in 250 W/m2
09:51 42.4 °F 34.4 °F 29.80 in NW 9.0 mph 18.0 mph 73 % 0.00 in 258 W/m2
09:56 42.6 °F 34.6 °F 29.80 in NW 10.0 mph 14.0 mph 73 % 0.00 in 265 W/m2
10:01 43.0 °F 34.9 °F 29.80 in WNW 12.0 mph 21.0 mph 73 % 0.00 in 274 W/m2
10:06 43.2 °F 34.7 °F 29.81 in NW 9.0 mph 16.0 mph 72 % 0.00 in 278 W/m2
10:11 43.3 °F 34.9 °F 29.81 in NW 12.0 mph 21.0 mph 72 % 0.00 in 285 W/m2
10:16 43.3 °F 34.6 °F 29.81 in NW 11.0 mph 20.0 mph 71 % 0.00 in 292 W/m2
10:21 43.5 °F 34.7 °F 29.82 in WNW 13.0 mph 23.0 mph 71 % 0.00 in 295 W/m2
10:26 43.5 °F 34.4 °F 29.82 in NW 10.0 mph 19.0 mph 70 % 0.00 in 301 W/m2
10:31 43.7 °F 34.6 °F 29.82 in NW 10.0 mph 19.0 mph 70 % 0.00 in 306 W/m2
10:36 43.9 °F 34.7 °F 29.82 in NW 12.0 mph 22.0 mph 70 % 0.00 in 311 W/m2
10:41 44.1 °F 34.9 °F 29.82 in NW 10.0 mph 18.0 mph 70 % 0.00 in 315 W/m2
10:46 44.1 °F 34.9 °F 29.83 in NW 12.0 mph 21.0 mph 70 % 0.00 in 320 W/m2
10:51 44.2 °F 34.7 °F 29.83 in NW 11.0 mph 18.0 mph 69 % 0.00 in 329 W/m2
10:56 44.2 °F 34.3 °F 29.83 in NW 12.0 mph 21.0 mph 68 % 0.00 in 332 W/m2
11:01 44.4 °F 34.9 °F 29.84 in NW 9.0 mph 18.0 mph 69 % 0.00 in 336 W/m2
11:11 44.8 °F 35.2 °F 29.84 in NW 8.0 mph 14.0 mph 69 % 0.00 in 350 W/m2
11:16 45.1 °F 35.2 °F 29.85 in NW 10.0 mph 15.0 mph 68 % 0.00 in 404 W/m2
11:21 45.1 °F 34.8 °F 29.86 in NW 10.0 mph 18.0 mph 67 % 0.00 in 186 W/m2
11:26 45.0 °F 34.7 °F 29.86 in NW 13.0 mph 21.0 mph 67 % 0.00 in 134 W/m2
11:31 44.4 °F 34.1 °F 29.86 in NW 11.0 mph 20.0 mph 67 % 0.00 in 125 W/m2
11:36 44.2 °F 34.3 °F 29.86 in NW 9.0 mph 16.0 mph 68 % 0.00 in 125 W/m2
11:41 44.1 °F 34.2 °F 29.87 in NW 9.0 mph 16.0 mph 68 % 0.00 in 121 W/m2
11:46 44.2 °F 34.7 °F 29.87 in NW 10.0 mph 15.0 mph 69 % 0.00 in 346 W/m2
11:52 44.8 °F 35.2 °F 29.88 in NW 11.0 mph 19.0 mph 69 % 0.00 in 350 W/m2
11:57 45.1 °F 35.2 °F 29.87 in NW 8.0 mph 15.0 mph 68 % 0.00 in 355 W/m2
12:02 45.3 °F 35.0 °F 29.88 in NW 8.0 mph 13.0 mph 67 % 0.00 in 381 W/m2
12:07 45.7 °F 35.3 °F 29.88 in NW 9.0 mph 18.0 mph 67 % 0.00 in 380 W/m2
12:12 45.9 °F 35.1 °F 29.88 in NW 10.0 mph 16.0 mph 66 % 0.00 in 376 W/m2
12:17 46.0 °F 35.3 °F 29.88 in NW 6.0 mph 11.0 mph 66 % 0.00 in 139 W/m2
12:22 45.9 °F 35.1 °F 29.88 in NW 8.0 mph 14.0 mph 66 % 0.00 in 105 W/m2
12:27 45.7 °F 35.0 °F 29.89 in NW 6.0 mph 12.0 mph 66 % 0.00 in 100 W/m2
12:32 45.3 °F 34.6 °F 29.89 in NNW 9.0 mph 19.0 mph 66 % 0.00 in 95 W/m2
12:37 45.1 °F 34.8 °F 29.89 in NW 11.0 mph 21.0 mph 67 % 0.00 in 330 W/m2
12:42 45.3 °F 34.6 °F 29.89 in NW 12.0 mph 24.0 mph 66 % 0.00 in 330 W/m2
12:47 45.3 °F 34.6 °F 29.89 in NNW 8.0 mph 15.0 mph 66 % 0.00 in 318 W/m2
12:52 45.7 °F 35.0 °F 29.89 in NW 13.0 mph 22.0 mph 66 % 0.00 in 313 W/m2
12:57 45.9 °F 34.8 °F 29.89 in NW 13.0 mph 23.0 mph 65 % 0.00 in 309 W/m2
13:02 45.9 °F 34.8 °F 29.90 in NW 11.0 mph 20.0 mph 65 % 0.00 in 308 W/m2
13:07 46.0 °F 34.9 °F 29.90 in NW 13.0 mph 21.0 mph 65 % 0.00 in 306 W/m2
13:12 46.2 °F 35.1 °F 29.90 in NW 11.0 mph 24.0 mph 65 % 0.00 in 308 W/m2
13:17 46.4 °F 34.9 °F 29.91 in NW 10.0 mph 15.0 mph 64 % 0.00 in 308 W/m2
13:22 46.6 °F 34.7 °F 29.91 in NW 11.0 mph 20.0 mph 63 % 0.00 in 385 W/m2
13:27 46.8 °F 34.4 °F 29.91 in NNW 11.0 mph 19.0 mph 62 % 0.00 in 369 W/m2
13:32 46.8 °F 34.4 °F 29.91 in NW 14.0 mph 24.0 mph 62 % 0.00 in 292 W/m2
13:37 46.6 °F 34.2 °F 29.92 in NW 8.0 mph 15.0 mph 62 % 0.00 in 285 W/m2
13:42 46.6 °F 34.2 °F 29.92 in NW 12.0 mph 22.0 mph 62 % 0.00 in 267 W/m2
13:47 46.6 °F 34.2 °F 29.92 in NNW 10.0 mph 19.0 mph 62 % 0.00 in 179 W/m2
13:52 46.4 °F 33.7 °F 29.92 in NW 16.0 mph 25.0 mph 61 % 0.00 in 260 W/m2
13:57 46.4 °F 34.1 °F 29.92 in NW 12.0 mph 23.0 mph 62 % 0.00 in 255 W/m2
14:02 46.4 °F 34.1 °F 29.93 in NW 11.0 mph 22.0 mph 62 % 0.00 in 285 W/m2
14:07 46.2 °F 33.9 °F 29.93 in NW 13.0 mph 22.0 mph 62 % 0.00 in 211 W/m2
14:12 46.2 °F 34.3 °F 29.93 in NW 11.0 mph 19.0 mph 63 % 0.00 in 241 W/m2
14:17 46.4 °F 34.5 °F 29.94 in NW 10.0 mph 24.0 mph 63 % 0.00 in 192 W/m2
14:19 46.4 °F 34.1 °F 29.94 in NW 14.0 mph 24.0 mph 62 % 0.00 in 221 W/m2
14:24 46.2 °F 33.9 °F 29.94 in NW 12.0 mph 22.0 mph 62 % 0.00 in 86 W/m2
14:30 45.9 °F 33.6 °F 29.94 in NW 12.0 mph 21.0 mph 62 % 0.00 in 188 W/m2
14:35 45.9 °F 34.0 °F 29.94 in NW 11.0 mph 22.0 mph 63 % 0.00 in 174 W/m2
14:40 45.7 °F 33.8 °F 29.94 in NW 13.0 mph 22.0 mph 63 % 0.00 in 163 W/m2
14:45 45.7 °F 33.8 °F 29.94 in NW 11.0 mph 19.0 mph 63 % 0.00 in 160 W/m2
14:50 45.5 °F 33.6 °F 29.95 in NW 10.0 mph 15.0 mph 63 % 0.00 in 160 W/m2
14:55 45.3 °F 33.9 °F 29.95 in NW 9.0 mph 16.0 mph 64 % 0.00 in 146 W/m2
15:00 45.1 °F 33.3 °F 29.95 in NW 10.0 mph 18.0 mph 63 % 0.00 in 37 W/m2
15:05 45.0 °F 33.1 °F 29.96 in NNW 10.0 mph 19.0 mph 63 % 0.00 in 42 W/m2
15:10 44.8 °F 33.3 °F 29.96 in NW 11.0 mph 18.0 mph 64 % 0.00 in 46 W/m2
15:15 44.8 °F 33.3 °F 29.97 in NW 7.0 mph 14.0 mph 64 % 0.00 in 35 W/m2
15:20 44.6 °F 33.6 °F 29.97 in NW 8.0 mph 15.0 mph 65 % 0.00 in 33 W/m2
15:25 44.6 °F 33.6 °F 29.97 in NW 6.0 mph 18.0 mph 65 % 0.00 in 32 W/m2
15:30 44.6 °F 33.6 °F 29.98 in NW 9.0 mph 13.0 mph 65 % 0.00 in 23 W/m2
15:35 44.8 °F 33.3 °F 29.98 in NW 9.0 mph 18.0 mph 64 % 0.00 in 16 W/m2
15:40 44.6 °F 33.2 °F 29.98 in NW 8.0 mph 14.0 mph 64 % 0.00 in 12 W/m2
15:45 44.6 °F 33.6 °F 29.99 in NW 8.0 mph 16.0 mph 65 % 0.00 in 11 W/m2
15:50 44.4 °F 33.4 °F 29.99 in NW 8.0 mph 13.0 mph 65 % 0.00 in 9 W/m2
15:55 44.2 °F 33.2 °F 30.00 in NW 9.0 mph 14.0 mph 65 % 0.00 in 5 W/m2
16:00 44.2 °F 33.2 °F 30.00 in NW 9.0 mph 13.0 mph 65 % 0.00 in 5 W/m2
16:05 44.2 °F 33.6 °F 30.00 in NW 8.0 mph 14.0 mph 66 % 0.00 in 5 W/m2
16:10 44.1 °F 33.4 °F 30.00 in NW 9.0 mph 16.0 mph 66 % 0.00 in 0 W/m2
16:15 44.1 °F 33.4 °F 30.01 in NW 9.0 mph 19.0 mph 66 % 0.00 in 0 W/m2
16:20 44.1 °F 33.4 °F 30.01 in NW 9.0 mph 15.0 mph 66 % 0.00 in 0 W/m2
16:25 44.1 °F 33.4 °F 30.01 in NW 9.0 mph 20.0 mph 66 % 0.00 in 0 W/m2
16:30 43.9 °F 33.3 °F 30.01 in NW 8.0 mph 13.0 mph 66 % 0.00 in 0 W/m2
16:35 43.9 °F 32.9 °F 30.02 in NW 7.0 mph 13.0 mph 65 % 0.00 in 0 W/m2
16:40 43.9 °F 33.3 °F 30.02 in NW 7.0 mph 12.0 mph 66 % 0.00 in 0 W/m2
16:45 43.7 °F 32.7 °F 30.02 in NW 8.0 mph 12.0 mph 65 % 0.00 in 0 W/m2
16:50 43.7 °F 32.7 °F 30.03 in NW 8.0 mph 14.0 mph 65 % 0.00 in 0 W/m2
16:55 43.5 °F 32.5 °F 30.03 in NW 12.0 mph 19.0 mph 65 % 0.00 in 0 W/m2
17:00 43.7 °F 32.7 °F 30.04 in NW 9.0 mph 13.0 mph 65 % 0.00 in 0 W/m2
17:05 43.7 °F 32.7 °F 30.04 in NW 9.0 mph 16.0 mph 65 % 0.00 in 0 W/m2
17:10 43.7 °F 33.1 °F 30.05 in NW 9.0 mph 15.0 mph 66 % 0.00 in 0 W/m2
17:15 43.5 °F 32.9 °F 30.05 in WNW 8.0 mph 13.0 mph 66 % 0.00 in 0 W/m2
17:20 43.5 °F 32.9 °F 30.05 in WNW 9.0 mph 14.0 mph 66 % 0.00 in 0 W/m2
17:26 43.3 °F 33.1 °F 30.05 in WNW 8.0 mph 14.0 mph 67 % 0.00 in 0 W/m2
17:31 43.3 °F 33.1 °F 30.06 in WNW 7.0 mph 11.0 mph 67 % 0.00 in 0 W/m2
17:36 43.2 °F 32.9 °F 30.06 in NW 9.0 mph 16.0 mph 67 % 0.00 in 0 W/m2
17:41 43.2 °F 32.9 °F 30.06 in WNW 8.0 mph 12.0 mph 67 % 0.00 in 0 W/m2
17:46 43.2 °F 32.9 °F 30.06 in WNW 11.0 mph 20.0 mph 67 % 0.00 in 0 W/m2
17:51 43.2 °F 32.9 °F 30.07 in WNW 7.0 mph 14.0 mph 67 % 0.00 in 0 W/m2
17:56 43.0 °F 32.8 °F 30.07 in NW 8.0 mph 14.0 mph 67 % 0.00 in 0 W/m2
18:01 43.0 °F 32.8 °F 30.08 in WNW 8.0 mph 12.0 mph 67 % 0.00 in 0 W/m2
18:06 43.0 °F 32.8 °F 30.08 in WNW 7.0 mph 14.0 mph 67 % 0.00 in 0 W/m2
18:11 42.8 °F 33.0 °F 30.08 in WNW 6.0 mph 10.0 mph 68 % 0.00 in 0 W/m2
18:16 42.6 °F 32.8 °F 30.08 in WNW 7.0 mph 11.0 mph 68 % 0.00 in 0 W/m2
18:21 42.4 °F 32.6 °F 30.09 in NW 7.0 mph 13.0 mph 68 % 0.00 in 0 W/m2
18:26 42.3 °F 32.4 °F 30.09 in WNW 10.0 mph 15.0 mph 68 % 0.00 in 0 W/m2
18:31 42.1 °F 32.3 °F 30.09 in WNW 7.0 mph 11.0 mph 68 % 0.00 in 0 W/m2
18:36 41.9 °F 32.1 °F 30.09 in WNW 7.0 mph 11.0 mph 68 % 0.00 in 0 W/m2
18:41 41.7 °F 32.3 °F 30.09 in WNW 6.0 mph 10.0 mph 69 % 0.00 in 0 W/m2
18:46 41.5 °F 32.1 °F 30.10 in WNW 6.0 mph 10.0 mph 69 % 0.00 in 0 W/m2
18:51 41.4 °F 31.9 °F 30.10 in WNW 6.0 mph 11.0 mph 69 % 0.00 in 0 W/m2
18:56 41.4 °F 31.9 °F 30.10 in WNW 6.0 mph 9.0 mph 69 % 0.00 in 0 W/m2
19:01 41.2 °F 31.8 °F 30.10 in WNW 6.0 mph 9.0 mph 69 % 0.00 in 0 W/m2
19:06 41.2 °F 31.8 °F 30.10 in NW 9.0 mph 14.0 mph 69 % 0.00 in 0 W/m2
19:11 41.2 °F 31.8 °F 30.11 in WNW 7.0 mph 12.0 mph 69 % 0.00 in 0 W/m2
19:16 41.2 °F 31.8 °F 30.11 in WNW 6.0 mph 11.0 mph 69 % 0.00 in 0 W/m2
19:21 41.2 °F 32.1 °F 30.11 in WNW 6.0 mph 11.0 mph 70 % 0.00 in 0 W/m2
19:26 41.0 °F 31.6 °F 30.11 in WNW 6.0 mph 9.0 mph 69 % 0.00 in 0 W/m2
19:31 41.0 °F 31.6 °F 30.12 in WNW 7.0 mph 11.0 mph 69 % 0.00 in 0 W/m2
19:36 40.8 °F 31.4 °F 30.12 in WNW 7.0 mph 12.0 mph 69 % 0.00 in 0 W/m2
19:41 40.6 °F 31.3 °F 30.13 in WNW 7.0 mph 13.0 mph 69 % 0.00 in 0 W/m2
19:46 40.6 °F 31.3 °F 30.13 in WNW 6.0 mph 12.0 mph 69 % 0.00 in 0 W/m2
19:51 40.5 °F 31.1 °F 30.13 in NW 8.0 mph 12.0 mph 69 % 0.00 in 0 W/m2
19:56 40.5 °F 31.4 °F 30.13 in WNW 7.0 mph 12.0 mph 70 % 0.00 in 0 W/m2
20:01 40.5 °F 31.4 °F 30.13 in WNW 7.0 mph 14.0 mph 70 % 0.00 in 0 W/m2
20:07 40.3 °F 31.3 °F 30.14 in WNW 8.0 mph 11.0 mph 70 % 0.00 in 0 W/m2
20:12 40.3 °F 31.3 °F 30.14 in WNW 7.0 mph 13.0 mph 70 % 0.00 in 0 W/m2
20:17 40.1 °F 31.1 °F 30.14 in WNW 9.0 mph 12.0 mph 70 % 0.00 in 0 W/m2
20:22 40.1 °F 31.1 °F 30.15 in WNW 8.0 mph 12.0 mph 70 % 0.00 in 0 W/m2
20:27 39.9 °F 31.3 °F 30.15 in WNW 9.0 mph 14.0 mph 71 % 0.00 in 0 W/m2
20:32 39.9 °F 31.3 °F 30.15 in WNW 8.0 mph 12.0 mph 71 % 0.00 in 0 W/m2
20:37 39.7 °F 31.1 °F 30.15 in NW 7.0 mph 11.0 mph 71 % 0.00 in 0 W/m2
20:42 39.7 °F 31.1 °F 30.15 in NW 6.0 mph 11.0 mph 71 % 0.00 in 0 W/m2
20:47 39.6 °F 30.9 °F 30.15 in WNW 7.0 mph 12.0 mph 71 % 0.00 in 0 W/m2
20:52 39.4 °F 31.1 °F 30.15 in NW 4.0 mph 8.0 mph 72 % 0.00 in 0 W/m2
20:57 39.4 °F 31.1 °F 30.16 in NW 5.0 mph 10.0 mph 72 % 0.00 in 0 W/m2
21:02 39.4 °F 31.1 °F 30.16 in WNW 6.0 mph 10.0 mph 72 % 0.00 in 0 W/m2
21:07 39.4 °F 31.1 °F 30.16 in WNW 7.0 mph 11.0 mph 72 % 0.00 in 0 W/m2
21:12 39.4 °F 31.1 °F 30.17 in WNW 5.0 mph 8.0 mph 72 % 0.00 in 0 W/m2
21:17 39.2 °F 31.3 °F 30.17 in WNW 6.0 mph 11.0 mph 73 % 0.00 in 0 W/m2
21:22 39.0 °F 31.1 °F 30.17 in WNW 4.0 mph 9.0 mph 73 % 0.00 in 0 W/m2
21:24 38.8 °F 30.9 °F 30.17 in WNW 5.0 mph 9.0 mph 73 % 0.00 in 0 W/m2
21:27 38.8 °F 30.9 °F 30.17 in WNW 5.0 mph 9.0 mph 73 % 0.00 in 0 W/m2
21:32 38.7 °F 31.1 °F 30.17 in WNW 4.0 mph 8.0 mph 74 % 0.00 in 0 W/m2
21:37 38.5 °F 30.9 °F 30.18 in WNW 5.0 mph 8.0 mph 74 % 0.00 in 0 W/m2
21:42 38.5 °F 30.9 °F 30.18 in WNW 6.0 mph 9.0 mph 74 % 0.00 in 0 W/m2
21:47 38.3 °F 31.1 °F 30.18 in NW 6.0 mph 10.0 mph 75 % 0.00 in 0 W/m2
21:52 38.1 °F 30.9 °F 30.18 in WNW 6.0 mph 12.0 mph 75 % 0.00 in 0 W/m2
21:57 38.1 °F 30.9 °F 30.18 in NW 7.0 mph 14.0 mph 75 % 0.00 in 0 W/m2
22:02 38.3 °F 31.1 °F 30.19 in NW 8.0 mph 12.0 mph 75 % 0.00 in 0 W/m2
22:07 38.5 °F 30.9 °F 30.19 in NW 8.0 mph 16.0 mph 74 % 0.00 in 0 W/m2
22:12 38.7 °F 31.1 °F 30.18 in NW 7.0 mph 13.0 mph 74 % 0.00 in 0 W/m2
22:17 38.8 °F 30.9 °F 30.18 in NW 10.0 mph 14.0 mph 73 % 0.00 in 0 W/m2
22:22 39.0 °F 31.1 °F 30.18 in NW 10.0 mph 14.0 mph 73 % 0.00 in 0 W/m2
22:27 39.2 °F 30.9 °F 30.18 in NW 8.0 mph 13.0 mph 72 % 0.00 in 0 W/m2
22:32 39.2 °F 30.9 °F 30.18 in NW 11.0 mph 16.0 mph 72 % 0.00 in 0 W/m2
22:37 39.2 °F 30.9 °F 30.19 in NW 8.0 mph 12.0 mph 72 % 0.00 in 0 W/m2
22:42 39.2 °F 30.9 °F 30.19 in NW 9.0 mph 16.0 mph 72 % 0.00 in 0 W/m2
22:47 39.2 °F 30.9 °F 30.19 in NW 10.0 mph 15.0 mph 72 % 0.00 in 0 W/m2
22:52 39.2 °F 30.9 °F 30.19 in NW 9.0 mph 16.0 mph 72 % 0.00 in 0 W/m2
22:57 39.2 °F 30.9 °F 30.20 in NW 9.0 mph 15.0 mph 72 % 0.00 in 0 W/m2
23:02 39.2 °F 30.9 °F 30.20 in NW 7.0 mph 13.0 mph 72 % 0.00 in 0 W/m2
23:07 39.0 °F 30.8 °F 30.20 in WNW 8.0 mph 13.0 mph 72 % 0.00 in 0 W/m2
23:12 38.8 °F 30.6 °F 30.20 in NW 7.0 mph 10.0 mph 72 % 0.00 in 0 W/m2
23:17 38.8 °F 30.9 °F 30.20 in NW 7.0 mph 13.0 mph 73 % 0.00 in 0 W/m2
23:22 38.7 °F 30.7 °F 30.20 in NW 8.0 mph 14.0 mph 73 % 0.00 in 0 W/m2
23:27 38.7 °F 30.7 °F 30.20 in NW 8.0 mph 12.0 mph 73 % 0.00 in 0 W/m2
23:32 38.5 °F 30.6 °F 30.20 in WNW 7.0 mph 11.0 mph 73 % 0.00 in 0 W/m2
23:37 38.5 °F 30.9 °F 30.21 in WNW 6.0 mph 10.0 mph 74 % 0.00 in 0 W/m2
23:42 38.1 °F 30.6 °F 30.21 in WNW 5.0 mph 11.0 mph 74 % 0.00 in 0 W/m2
23:47 37.9 °F 30.4 °F 30.21 in NW 5.0 mph 8.0 mph 74 % 0.00 in 0 W/m2
23:52 37.8 °F 30.5 °F 30.21 in NW 6.0 mph 10.0 mph 75 % 0.00 in 0 W/m2
23:57 37.6 °F 30.4 °F 30.21 in WNW 5.0 mph 8.0 mph 75 % 0.00 in 0 W/m2
Delerius-Weather
Compliments of Weather Underground - 2.25 mb

Data updates at regular intervals.